createdAt,value
2018-09-28T00:00:56.085Z,98050.45
2018-09-28T00:03:25.896Z,98044.33
2018-09-28T00:05:56.326Z,98053.52
2018-09-28T00:08:26.348Z,98059.33
2018-09-28T00:10:56.429Z,98060.86
2018-09-28T00:13:26.434Z,98054.73
2018-09-28T00:15:56.001Z,98048.77
2018-09-28T00:18:25.824Z,98050.97
2018-09-28T00:20:55.905Z,98045.55
2018-09-28T00:23:25.324Z,98057.44
2018-09-28T00:25:55.320Z,98044.50
2018-09-28T00:28:25.102Z,98043.18
2018-09-28T00:30:55.094Z,98047.83
2018-09-28T00:33:24.649Z,98042.77
2018-09-28T00:35:55.228Z,98033.94
2018-09-28T00:38:25.566Z,98032.59
2018-09-28T00:40:55.171Z,98035.69
2018-09-28T00:43:24.740Z,98040.92
2018-09-28T00:45:54.788Z,98033.27
2018-09-28T00:48:24.413Z,98028.21
2018-09-28T00:50:54.148Z,98028.55
2018-09-28T00:53:24.208Z,98022.11
2018-09-28T00:55:54.015Z,98024.52
2018-09-28T00:58:23.685Z,98017.22
2018-09-28T01:00:53.307Z,98025.38
2018-09-28T01:03:22.909Z,98020.78
2018-09-28T01:05:52.527Z,98024.56
2018-09-28T01:08:22.249Z,98021.00
2018-09-28T01:10:51.885Z,98028.30
2018-09-28T01:13:21.625Z,98030.69
2018-09-28T01:15:51.776Z,98028.52
2018-09-28T01:18:21.543Z,98031.23
2018-09-28T01:20:51.260Z,98027.33
2018-09-28T01:23:21.342Z,98019.52
2018-09-28T01:25:51.097Z,98014.25
2018-09-28T01:28:21.305Z,98017.85
2018-09-28T01:30:50.923Z,98019.55
2018-09-28T01:33:20.471Z,98015.64
2018-09-28T01:35:49.889Z,98017.17
2018-09-28T01:38:20.007Z,98017.34
2018-09-28T01:40:49.756Z,98013.09
2018-09-28T01:43:19.296Z,98009.73
2018-09-28T01:45:49.033Z,98025.70
2018-09-28T01:48:18.665Z,98017.20
2018-09-28T01:50:48.361Z,98009.06
2018-09-28T01:53:17.981Z,98007.36
2018-09-28T01:55:47.544Z,98005.35
2018-09-28T01:58:17.480Z,98009.73
2018-09-28T02:00:47.916Z,98011.60
2018-09-28T02:03:17.517Z,98008.38
2018-09-28T02:05:47.437Z,98010.08
2018-09-28T02:08:17.362Z,98022.13
2018-09-28T02:10:47.039Z,98021.65
2018-09-28T02:13:17.311Z,98022.33
2018-09-28T02:15:46.997Z,98025.05
2018-09-28T02:18:16.978Z,98028.27
2018-09-28T02:20:46.568Z,98015.36
2018-09-28T02:23:16.224Z,98018.59
2018-09-28T02:25:46.025Z,98025.58
2018-09-28T02:28:15.685Z,98024.05
2018-09-28T02:30:45.281Z,98025.58
2018-09-28T02:33:15.419Z,98026.77
2018-09-28T02:35:44.975Z,98021.19
2018-09-28T02:38:14.797Z,98022.38
2018-09-28T02:40:44.921Z,98022.04
2018-09-28T02:43:14.516Z,98018.30
2018-09-28T02:45:44.272Z,98015.59
2018-09-28T02:48:14.065Z,98014.91
2018-09-28T02:50:43.606Z,98013.88
2018-09-28T02:53:17.616Z,98016.28
2018-09-28T02:55:48.603Z,98012.22
2018-09-28T02:58:18.314Z,98012.55
2018-09-28T03:00:50.243Z,98009.49
2018-09-28T03:03:20.039Z,98014.08
2018-09-28T03:05:50.224Z,98006.44
2018-09-28T03:08:20.444Z,98008.98
2018-09-28T03:10:49.913Z,98005.41
2018-09-28T03:13:19.803Z,98011.05
2018-09-28T03:15:49.347Z,98001.03
2018-09-28T03:18:19.435Z,98005.95
2018-09-28T03:20:49.013Z,98006.45
2018-09-28T03:23:19.662Z,98005.27
2018-09-28T03:25:49.258Z,98006.95
2018-09-28T03:28:20.108Z,98002.06
2018-09-28T03:30:49.764Z,97996.80
2018-09-28T03:33:19.722Z,98005.80
2018-09-28T03:35:49.795Z,98003.08
2018-09-28T03:38:19.385Z,98007.66
2018-09-28T03:40:48.985Z,98003.24
2018-09-28T03:43:18.451Z,97999.17
2018-09-28T03:45:48.382Z,98000.19
2018-09-28T03:48:18.556Z,97996.11
2018-09-28T03:50:48.399Z,97998.00
2018-09-28T03:53:18.079Z,98001.56
2018-09-28T03:55:47.609Z,97998.17
2018-09-28T03:58:17.099Z,98001.05
2018-09-28T04:00:46.794Z,98003.92
2018-09-28T04:03:17.332Z,98008.68
2018-09-28T04:05:47.174Z,98007.66
2018-09-28T04:08:16.849Z,98002.42
2018-09-28T04:10:46.483Z,97999.38
2018-09-28T04:13:16.211Z,97999.88
2018-09-28T04:15:45.871Z,98004.63
2018-09-28T04:18:16.016Z,98003.94
2018-09-28T04:20:46.034Z,98000.72
2018-09-28T04:23:15.803Z,98018.52
2018-09-28T04:25:47.473Z,98013.95
2018-09-28T04:28:16.906Z,98011.92
2018-09-28T04:30:46.841Z,98021.92
2018-09-28T04:33:17.010Z,98022.59
2018-09-28T04:35:46.576Z,98024.45
2018-09-28T04:38:16.370Z,98030.58
2018-09-28T04:40:46.128Z,98033.63
2018-09-28T04:43:22.256Z,98032.09
2018-09-28T04:46:01.702Z,98030.58
2018-09-28T04:48:31.390Z,98028.53
2018-09-28T04:51:01.186Z,98032.60
2018-09-28T04:53:31.370Z,98035.33
2018-09-28T04:56:01.086Z,98024.80
2018-09-28T04:58:31.067Z,98020.39
2018-09-28T05:01:00.983Z,98034.31
2018-09-28T05:03:32.007Z,98028.52
2018-09-28T05:06:01.633Z,98034.47
2018-09-28T05:08:31.644Z,98032.58
2018-09-28T05:11:01.479Z,98041.58
2018-09-28T05:13:31.963Z,98037.69
2018-09-28T05:16:04.060Z,98037.32
2018-09-28T05:18:34.898Z,98044.28
2018-09-28T05:21:06.030Z,98046.80
2018-09-28T05:23:35.616Z,98053.09
2018-09-28T05:26:05.911Z,98052.42
2018-09-28T05:28:36.323Z,98061.72
2018-09-28T05:31:06.459Z,98063.94
2018-09-28T05:33:36.183Z,98061.73
2018-09-28T05:36:06.033Z,98067.31
2018-09-28T05:38:35.526Z,98065.62
2018-09-28T05:41:06.414Z,98070.86
2018-09-28T05:43:36.697Z,98077.14
2018-09-28T05:46:07.244Z,98070.86
2018-09-28T05:48:36.848Z,98070.70
2018-09-28T05:51:08.520Z,98072.91
2018-09-28T05:53:40.926Z,98080.69
2018-09-28T05:56:11.247Z,98087.17
2018-09-28T05:58:46.135Z,98081.20
2018-09-28T06:01:20.554Z,98090.86
2018-09-28T06:03:55.195Z,98098.33
2018-09-28T06:06:25.288Z,98102.06
2018-09-28T06:08:54.997Z,98106.28
2018-09-28T06:11:24.626Z,98104.59
2018-09-28T06:13:55.227Z,98109.68
2018-09-28T06:16:25.070Z,98108.16
2018-09-28T06:18:54.979Z,98110.50
2018-09-28T06:21:24.700Z,98119.34
2018-09-28T06:23:54.550Z,98128.98
2018-09-28T06:26:24.274Z,98119.30
2018-09-28T06:28:53.856Z,98132.39
2018-09-28T06:31:23.377Z,98130.66
2018-09-28T06:33:53.059Z,98121.51
2018-09-28T06:36:23.338Z,98111.95
2018-09-28T06:38:52.831Z,98116.38
2018-09-28T06:41:22.855Z,98127.73
2018-09-28T06:43:53.070Z,98144.38
2018-09-28T06:46:23.095Z,98144.55
2018-09-28T06:48:52.876Z,98141.49
2018-09-28T06:51:23.223Z,98152.67
2018-09-28T06:53:52.779Z,98150.16
2018-09-28T06:56:23.868Z,98157.27
2018-09-28T06:58:53.766Z,98158.96
2018-09-28T07:01:26.014Z,98163.69
2018-09-28T07:03:56.060Z,98165.76
2018-09-28T07:06:25.755Z,98166.23
2018-09-28T07:08:55.728Z,98176.64
2018-09-28T07:11:25.485Z,98173.58
2018-09-28T07:13:55.471Z,98179.87
2018-09-28T07:16:25.210Z,98185.61
2018-09-28T07:18:55.071Z,98191.57
2018-09-28T07:21:24.969Z,98193.27
2018-09-28T07:23:55.403Z,98196.33
2018-09-28T07:26:25.076Z,98193.61
2018-09-28T07:28:56.469Z,98192.59
2018-09-28T07:31:26.911Z,98187.82
2018-09-28T07:33:58.057Z,98189.83
2018-09-28T07:36:30.433Z,98199.69
2018-09-28T07:39:00.493Z,98206.33
2018-09-28T07:44:08.707Z,98193.91
2018-09-28T07:46:38.196Z,98197.64
2018-09-28T07:49:07.883Z,98201.73
2018-09-28T07:51:38.345Z,98206.66
2018-09-28T07:54:08.499Z,98209.17
2018-09-28T07:56:38.977Z,98211.55
2018-09-28T07:59:08.817Z,98209.47
2018-09-28T08:01:39.094Z,98221.92
2018-09-28T08:04:09.094Z,98223.58
2018-09-28T08:06:39.007Z,98230.73
2018-09-28T08:09:10.214Z,98233.63
2018-09-28T08:11:40.132Z,98239.75
2018-09-28T08:14:10.092Z,98246.21
2018-09-28T08:16:40.349Z,98248.09
2018-09-28T08:19:10.721Z,98245.36
2018-09-28T08:21:40.525Z,98247.91
2018-09-28T08:24:11.145Z,98245.70
2018-09-28T08:26:40.970Z,98249.28
2018-09-28T08:29:10.786Z,98243.50
2018-09-28T08:31:40.301Z,98245.91
2018-09-28T08:34:10.306Z,98255.78
2018-09-28T08:36:40.078Z,98261.94
2018-09-28T08:39:10.948Z,98272.97
2018-09-28T08:41:41.202Z,98271.13
2018-09-28T08:44:10.797Z,98267.18
2018-09-28T08:46:40.686Z,98274.84
2018-09-28T08:49:11.029Z,98283.00
2018-09-28T08:51:40.663Z,98282.32
2018-09-28T08:54:10.621Z,98280.28
2018-09-28T08:56:40.563Z,98282.32
2018-09-28T08:59:10.645Z,98295.25
2018-09-28T09:01:41.300Z,98299.30
2018-09-28T09:04:11.345Z,98303.93
2018-09-28T09:06:41.148Z,98305.42
2018-09-28T09:09:13.534Z,98313.25
2018-09-28T09:11:43.653Z,98321.76
2018-09-28T09:14:14.103Z,98324.48
2018-09-28T09:16:44.508Z,98325.50
2018-09-28T09:19:14.602Z,98322.61
2018-09-28T09:24:23.816Z,98336.73
2018-09-28T09:26:54.104Z,98334.83
2018-09-28T09:29:24.218Z,98337.08
2018-09-28T09:31:53.720Z,98333.13
2018-09-28T09:34:23.785Z,98339.42
2018-09-28T09:36:53.723Z,98337.52
2018-09-28T09:39:25.040Z,98325.47
2018-09-28T09:41:54.908Z,98316.96
2018-09-28T09:44:24.477Z,98332.06
2018-09-28T09:46:54.580Z,98326.11
2018-09-28T09:49:25.175Z,98337.86
2018-09-28T09:51:55.202Z,98342.45
2018-09-28T09:54:24.883Z,98342.48
2018-09-28T09:56:54.618Z,98355.90
2018-09-28T09:59:24.736Z,98359.16
2018-09-28T10:01:59.994Z,98359.81
2018-09-28T10:04:29.858Z,98353.21
2018-09-28T10:06:59.434Z,98362.87
2018-09-28T10:09:30.421Z,98366.96
2018-09-28T10:12:07.516Z,98374.59
2018-09-28T10:14:37.519Z,98370.02
2018-09-28T10:17:08.088Z,98381.94
2018-09-28T10:19:39.002Z,98381.43
2018-09-28T10:22:09.905Z,98380.72
2018-09-28T10:24:40.698Z,98385.34
2018-09-28T10:27:10.931Z,98372.07
2018-09-28T10:29:41.079Z,98380.20
2018-09-28T10:32:11.150Z,98385.14
2018-09-28T10:34:40.820Z,98378.88
2018-09-28T10:37:10.595Z,98382.79
2018-09-28T10:39:40.584Z,98380.38
2018-09-28T10:42:10.728Z,98379.87
2018-09-28T10:44:41.351Z,98373.91
2018-09-28T10:47:12.354Z,98374.08
2018-09-28T10:49:44.155Z,98374.72
2018-09-28T10:52:14.478Z,98379.15
2018-09-28T10:54:44.196Z,98364.72
2018-09-28T10:57:14.825Z,98369.82
2018-09-28T10:59:44.692Z,98377.62
2018-09-28T11:02:15.095Z,98377.14
2018-09-28T11:04:45.443Z,98379.31
2018-09-28T11:07:16.189Z,98389.73
2018-09-28T11:09:46.403Z,98399.92
2018-09-28T11:12:16.483Z,98402.30
2018-09-28T11:14:48.375Z,98396.17
2018-09-28T11:17:18.801Z,98392.08
2018-09-28T11:19:50.102Z,98402.27
2018-09-28T11:22:20.754Z,98402.30
2018-09-28T11:24:50.819Z,98399.87
2018-09-28T11:27:20.684Z,98392.55
2018-09-28T11:29:50.458Z,98387.78
2018-09-28T11:32:20.717Z,98393.36
2018-09-28T11:34:50.544Z,98397.15
2018-09-28T11:37:20.993Z,98402.73
2018-09-28T11:39:51.016Z,98405.97
2018-09-28T11:42:20.651Z,98395.41
2018-09-28T11:44:50.678Z,98403.23
2018-09-28T11:47:21.079Z,98405.58
2018-09-28T11:49:52.436Z,98399.31
2018-09-28T11:52:22.297Z,98397.06
2018-09-28T11:54:52.972Z,98396.73
2018-09-28T11:57:22.627Z,98384.11
2018-09-28T11:59:55.153Z,98389.22
2018-09-28T12:02:25.481Z,98395.48
2018-09-28T12:04:55.528Z,98399.10
2018-09-28T12:07:25.619Z,98401.83
2018-09-28T12:09:55.911Z,98403.23
2018-09-28T12:12:25.691Z,98402.56
2018-09-28T12:14:55.395Z,98395.57
2018-09-28T12:17:25.527Z,98396.42
2018-09-28T12:19:56.657Z,98402.52
2018-09-28T12:22:39.746Z,98401.67
2018-09-28T12:25:09.412Z,98402.86
2018-09-28T12:27:39.161Z,98401.83
2018-09-28T12:30:08.727Z,98396.05
2018-09-28T12:32:38.496Z,98392.63
2018-09-28T12:35:08.468Z,98393.48
2018-09-28T12:37:38.671Z,98397.23
2018-09-28T12:40:08.856Z,98399.78
2018-09-28T12:42:38.981Z,98401.15
2018-09-28T12:45:08.479Z,98404.56
2018-09-28T12:47:38.628Z,98406.22
2018-09-28T12:50:08.300Z,98397.88
2018-09-28T12:52:38.987Z,98399.23
2018-09-28T12:55:09.483Z,98404.17
2018-09-28T12:57:39.152Z,98401.27
2018-09-28T13:00:09.626Z,98405.70
2018-09-28T13:02:39.248Z,98404.46
2018-09-28T13:05:09.076Z,98404.68
2018-09-28T13:07:38.820Z,98411.28
2018-09-28T13:10:11.011Z,98412.98
2018-09-28T13:12:55.320Z,98417.76
2018-09-28T13:15:34.759Z,98418.42
2018-09-28T13:18:04.693Z,98420.59
2018-09-28T13:20:34.459Z,98418.95
2018-09-28T13:23:04.085Z,98415.36
2018-09-28T13:25:33.792Z,98411.95
2018-09-28T13:28:03.435Z,98409.86
2018-09-28T13:30:34.331Z,98406.50
2018-09-28T13:33:04.807Z,98400.70
2018-09-28T13:35:35.091Z,98409.69
2018-09-28T13:38:04.691Z,98411.20
2018-09-28T13:40:34.737Z,98405.42
2018-09-28T13:43:04.728Z,98401.16
2018-09-28T13:45:35.714Z,98395.83
2018-09-28T13:48:05.769Z,98400.94
2018-09-28T13:53:12.062Z,98382.17
2018-09-28T13:55:42.332Z,98390.55
2018-09-28T13:58:12.197Z,98384.56
2018-09-28T14:00:42.241Z,98387.12
2018-09-28T14:05:41.507Z,98396.33
2018-09-28T14:08:11.252Z,98397.86
2018-09-28T14:10:41.832Z,98400.59
2018-09-28T14:13:11.818Z,98403.32
2018-09-28T14:15:42.078Z,98404.51
2018-09-28T14:18:12.155Z,98399.92
2018-09-28T14:20:41.894Z,98401.61
2018-09-28T14:23:11.451Z,98407.97
2018-09-28T14:25:41.764Z,98405.25
2018-09-28T14:28:11.556Z,98410.53
2018-09-28T14:30:41.435Z,98408.99
2018-09-28T14:33:11.379Z,98411.78
2018-09-28T14:35:41.038Z,98416.38
2018-09-28T14:38:11.210Z,98423.14
2018-09-28T14:40:40.987Z,98423.77
2018-09-28T14:43:10.488Z,98423.59
2018-09-28T14:45:40.040Z,98421.03
2018-09-28T14:50:38.607Z,98422.06
2018-09-28T14:53:09.173Z,98419.80
2018-09-28T14:55:39.176Z,98419.47
2018-09-28T14:58:08.815Z,98420.83
2018-09-28T15:00:39.117Z,98427.65
2018-09-28T15:03:08.823Z,98435.02
2018-09-28T15:05:38.465Z,98432.12
2018-09-28T15:08:08.429Z,98430.93
2018-09-28T15:10:38.866Z,98436.22
2018-09-28T15:13:09.438Z,98432.64
2018-09-28T15:15:39.887Z,98431.67
2018-09-28T15:18:09.363Z,98435.46
2018-09-28T15:20:40.085Z,98437.17
2018-09-28T15:23:09.948Z,98435.12
2018-09-28T15:25:39.529Z,98441.27
2018-09-28T15:28:10.699Z,98438.07
2018-09-28T15:30:41.399Z,98434.79
2018-09-28T15:33:10.898Z,98442.56
2018-09-28T15:35:40.740Z,98431.97
2018-09-28T15:38:10.877Z,98442.91
2018-09-28T15:40:41.178Z,98441.42
2018-09-28T15:43:11.088Z,98438.20
2018-09-28T15:45:41.705Z,98440.92
2018-09-28T15:48:11.706Z,98431.72
2018-09-28T15:50:41.878Z,98437.69
2018-09-28T15:53:11.455Z,98437.34
2018-09-28T15:55:41.692Z,98445.34
2018-09-28T15:58:11.723Z,98447.09
2018-09-28T16:00:43.092Z,98444.04
2018-09-28T16:03:12.966Z,98437.55
2018-09-28T16:05:42.709Z,98445.23
2018-09-28T16:08:12.404Z,98437.60
2018-09-28T16:10:42.072Z,98449.02
2018-09-28T16:13:12.178Z,98451.92
2018-09-28T16:15:41.775Z,98464.69
2018-09-28T16:18:11.653Z,98471.03
2018-09-28T16:20:41.183Z,98471.55
2018-09-28T16:23:11.115Z,98469.87
2018-09-28T16:25:41.213Z,98474.58
2018-09-28T16:28:10.850Z,98477.64
2018-09-28T16:30:40.316Z,98477.98
2018-09-28T16:33:09.906Z,98482.95
2018-09-28T16:35:40.038Z,98484.31
2018-09-28T16:38:09.651Z,98486.88
2018-09-28T16:40:39.259Z,98480.94
2018-09-28T16:43:08.966Z,98489.96
2018-09-28T16:45:38.683Z,98474.13
2018-09-28T16:48:08.190Z,98491.02
2018-09-28T16:50:37.876Z,98485.55
2018-09-28T16:53:07.413Z,98488.96
2018-09-28T16:55:37.159Z,98493.72
2018-09-28T16:58:06.930Z,98490.01
2018-09-28T17:00:38.176Z,98501.58
2018-09-28T17:03:08.490Z,98503.81
2018-09-28T17:05:38.010Z,98509.94
2018-09-28T17:08:08.147Z,98513.66
2018-09-28T17:10:38.099Z,98528.81
2018-09-28T17:13:07.733Z,98518.77
2018-09-28T17:15:37.869Z,98521.49
2018-09-28T17:18:07.647Z,98529.34
2018-09-28T17:20:41.077Z,98529.83
2018-09-28T17:23:12.111Z,98533.92
2018-09-28T17:25:41.720Z,98532.58
2018-09-28T17:28:11.441Z,98542.10
2018-09-28T17:30:41.247Z,98541.25
2018-09-28T17:33:11.616Z,98546.70
2018-09-28T17:35:43.535Z,98552.83
2018-09-28T17:38:13.817Z,98550.78
2018-09-28T17:40:44.435Z,98567.80
2018-09-28T17:43:14.325Z,98575.95
2018-09-28T17:45:44.036Z,98573.92
2018-09-28T17:48:14.169Z,98566.10
2018-09-28T17:50:44.372Z,98572.23
2018-09-28T17:53:14.233Z,98567.30
2018-09-28T17:55:44.490Z,98579.19
2018-09-28T17:58:14.046Z,98589.41
2018-09-28T18:00:44.314Z,98581.22
2018-09-28T18:03:17.806Z,98591.27
2018-09-28T18:05:51.582Z,98590.77
2018-09-28T18:08:27.775Z,98592.97
2018-09-28T18:10:57.791Z,98592.95
2018-09-28T18:13:27.332Z,98593.13
2018-09-28T18:15:57.176Z,98602.16
2018-09-28T18:18:28.674Z,98600.77
2018-09-28T18:21:00.165Z,98603.69
2018-09-28T18:23:32.916Z,98607.42
2018-09-28T18:26:03.164Z,98607.08
2018-09-28T18:28:33.231Z,98605.36
2018-09-28T18:31:03.322Z,98609.77
2018-09-28T18:33:32.794Z,98608.94
2018-09-28T18:36:03.186Z,98602.30
2018-09-28T18:38:33.389Z,98613.04
2018-09-28T18:41:03.199Z,98621.39
2018-09-28T18:43:39.715Z,98625.59
2018-09-28T18:46:09.778Z,98635.98
2018-09-28T18:48:40.012Z,98625.60
2018-09-28T18:51:10.669Z,98637.85
2018-09-28T18:53:40.469Z,98637.84
2018-09-28T18:56:11.964Z,98640.72
2018-09-28T18:58:42.108Z,98644.14
2018-09-28T19:01:11.754Z,98645.82
2018-09-28T19:03:41.739Z,98655.02
2018-09-28T19:06:12.603Z,98644.14
2018-09-28T19:08:43.014Z,98659.80
2018-09-28T19:11:12.644Z,98655.71
2018-09-28T19:13:43.383Z,98657.08
2018-09-28T19:16:13.167Z,98664.39
2018-09-28T19:18:42.791Z,98662.68
2018-09-28T19:23:52.703Z,98661.67
2018-09-28T19:26:22.331Z,98663.19
2018-09-28T19:28:54.504Z,98660.97
2018-09-28T19:31:24.314Z,98666.42
2018-09-28T19:33:54.449Z,98661.13
2018-09-28T19:36:24.431Z,98669.80
2018-09-28T19:38:54.243Z,98666.42
2018-09-28T19:41:24.010Z,98667.94
2018-09-28T19:43:54.347Z,98667.94
2018-09-28T19:46:24.177Z,98673.89
2018-09-28T19:48:53.942Z,98673.89
2018-09-28T19:51:23.987Z,98679.11
2018-09-28T19:53:54.892Z,98680.63
2018-09-28T19:56:24.962Z,98679.43
2018-09-28T19:58:54.595Z,98687.44
2018-09-28T20:01:24.735Z,98687.25
2018-09-28T20:03:54.618Z,98685.54
2018-09-28T20:06:24.188Z,98688.77
2018-09-28T20:08:54.154Z,98686.90
2018-09-28T20:11:24.186Z,98693.35
2018-09-28T20:13:55.169Z,98687.88
2018-09-28T20:16:26.066Z,98705.41
2018-09-28T20:18:56.340Z,98707.42
2018-09-28T20:21:26.622Z,98710.81
2018-09-28T20:23:56.438Z,98716.75
2018-09-28T20:26:26.447Z,98712.86
2018-09-28T20:28:56.313Z,98718.97
2018-09-28T20:31:26.101Z,98720.33
2018-09-28T20:33:56.327Z,98717.61
2018-09-28T20:36:26.170Z,98719.47
2018-09-28T20:38:56.269Z,98716.91
2018-09-28T20:41:26.584Z,98726.70
2018-09-28T20:43:56.708Z,98727.66
2018-09-28T20:46:26.524Z,98729.86
2018-09-28T20:48:56.725Z,98736.11
2018-09-28T20:51:26.435Z,98733.55
2018-09-28T20:53:56.907Z,98742.05
2018-09-28T20:56:27.151Z,98740.45
2018-09-28T20:58:57.180Z,98743.00
2018-09-28T21:01:27.154Z,98743.96
2018-09-28T21:03:56.863Z,98739.37
2018-09-28T21:06:26.524Z,98742.23
2018-09-28T21:08:56.264Z,98743.55
2018-09-28T21:11:26.779Z,98749.29
2018-09-28T21:13:57.078Z,98744.01
2018-09-28T21:16:27.096Z,98745.02
2018-09-28T21:18:56.858Z,98755.84
2018-09-28T21:21:27.186Z,98752.77
2018-09-28T21:23:56.857Z,98758.19
2018-09-28T21:26:27.398Z,98755.92
2018-09-28T21:28:57.339Z,98755.06
2018-09-28T21:31:26.902Z,98756.40
2018-09-28T21:33:56.625Z,98758.77
2018-09-28T21:36:26.499Z,98753.78
2018-09-28T21:38:56.938Z,98758.21
2018-09-28T21:41:27.062Z,98753.41
2018-09-28T21:43:57.670Z,98757.48
2018-09-28T21:46:29.704Z,98759.79
2018-09-28T21:49:00.543Z,98762.98
2018-09-28T21:51:30.366Z,98771.98
2018-09-28T21:54:00.456Z,98769.42
2018-09-28T21:56:30.445Z,98771.20
2018-09-28T21:59:00.338Z,98764.70
2018-09-28T22:01:30.455Z,98760.20
2018-09-28T22:04:00.191Z,98755.83
2018-09-28T22:06:30.348Z,98762.41
2018-09-28T22:09:00.158Z,98763.12
2018-09-28T22:11:30.102Z,98766.31
2018-09-28T22:13:59.729Z,98771.39
2018-09-28T22:16:29.780Z,98767.61
2018-09-28T22:18:59.832Z,98770.83
2018-09-28T22:21:29.824Z,98770.61
2018-09-28T22:23:59.787Z,98776.55
2018-09-28T22:26:30.326Z,98770.53
2018-09-28T22:28:59.785Z,98775.45
2018-09-28T22:31:30.422Z,98773.70
2018-09-28T22:34:00.032Z,98772.38
2018-09-28T22:36:29.562Z,98771.94
2018-09-28T22:39:00.145Z,98782.58
2018-09-28T22:41:29.874Z,98784.22
2018-09-28T22:43:59.719Z,98786.08
2018-09-28T22:46:29.771Z,98785.52
2018-09-28T22:48:59.509Z,98786.34
2018-09-28T22:51:29.585Z,98777.98
2018-09-28T22:53:59.210Z,98783.91
2018-09-28T22:56:28.736Z,98775.73
2018-09-28T22:58:59.070Z,98774.67
2018-09-28T23:01:29.339Z,98768.53
2018-09-28T23:03:59.099Z,98769.17
2018-09-28T23:06:29.255Z,98771.71
2018-09-28T23:08:59.157Z,98772.50
2018-09-28T23:11:28.727Z,98775.70
2018-09-28T23:13:58.460Z,98779.20
2018-09-28T23:16:28.010Z,98772.74
2018-09-28T23:18:58.198Z,98776.45
2018-09-28T23:21:27.881Z,98757.77
2018-09-28T23:23:57.475Z,98749.59
2018-09-28T23:26:27.142Z,98762.29
2018-09-28T23:28:56.700Z,98773.06
2018-09-28T23:31:26.416Z,98773.70
2018-09-28T23:33:55.971Z,98774.20
2018-09-28T23:36:25.894Z,98778.95
2018-09-28T23:38:55.479Z,98780.44
2018-09-28T23:41:25.192Z,98783.08
2018-09-28T23:43:54.887Z,98788.50
2018-09-28T23:46:24.487Z,98787.10
2018-09-28T23:48:54.165Z,98787.24
2018-09-28T23:51:23.813Z,98786.52
2018-09-28T23:53:53.628Z,98794.94
2018-09-28T23:56:23.358Z,98792.40
2018-09-28T23:58:53.706Z,98797.60
